This is the latest recevied weather packets stored in our database for station/object N5KR. If no packets are shown the sender has not sent any weather packets the latest 10 day(s).
| Time | Temp. | Humidity | Pressure | Rain* | Wind** | Luminosity | Snow |
|---|---|---|---|---|---|---|---|
| 1778001905 | 27.78° C | 68% | 1005.6 hPa | 0 mm | - | 507 W/m² | - |
| 1777998605 | 26.11° C | 71% | 1005.4 hPa | 0 mm | - | 370 W/m² | - |
| 1777998305 | 26.11° C | 71% | 1005.4 hPa | 0 mm | - | 599 W/m² | - |
| 1777995905 | 25° C | 74% | 1005.1 hPa | 0 mm | - | 345 W/m² | - |
| 1777994405 | 25° C | 74% | 1005.4 hPa | 0 mm | - | 409 W/m² | - |
| 1777993805 | 24.44° C | 76% | 1005.5 hPa | 0 mm | - | 392 W/m² | - |
| 1777993204 | 23.89° C | 77% | 1005.4 hPa | 0 mm | - | 206 W/m² | - |
| 1777991104 | 23.89° C | 78% | 1005.2 hPa | 0 mm | - | 188 W/m² | - |
| 1777989304 | 22.78° C | 80% | 1005.1 hPa | 0 mm | - | 128 W/m² | - |
| 1777989005 | 22.78° C | 80% | 1005 hPa | 0 mm | - | 94 W/m² | - |
| 1777988405 | 22.78° C | 81% | 1004.9 hPa | 0 mm | - | 68 W/m² | - |
| 1777983304 | 21.67° C | 83% | 1004.4 hPa | 0 mm | - | 16 W/m² | - |
| 1777982404 | 21.67° C | 82% | 1004.2 hPa | 0 mm | - | 6 W/m² | - |
| 1777981504 | 21.67° C | 82% | 1004.2 hPa | 0 mm | - | 0 W/m² | - |
| 1777978504 | 21.67° C | 82% | 1003.9 hPa | 0 mm | - | 0 W/m² | - |
| 1777977905 | 21.67° C | 82% | 1004 hPa | 0 mm | - | 0 W/m² | - |
| 1777977604 | 21.67° C | 82% | 1004.1 hPa | 0 mm | - | 0 W/m² | - |
| 1777975504 | 21.67° C | 82% | 1004.3 hPa | 0 mm | - | 0 W/m² | - |
| 1777973104 | 21.67° C | 82% | 1004.6 hPa | 0 mm | - | 0 W/m² | - |
| 1777972504 | 21.67° C | 82% | 1004.7 hPa | 0 mm | - | 0 W/m² | - |
| 1777971604 | 21.67° C | 82% | 1004.7 hPa | 0 mm | - | 0 W/m² | - |
| 1777971003 | 21.67° C | 82% | 1004.7 hPa | 0 mm | - | 0 W/m² | - |
| 1777968604 | 21.67° C | 81% | 1004.9 hPa | 0 mm | - | 0 W/m² | - |
| 1777967707 | 22.22° C | 80% | 1005.1 hPa | 0 mm | - | 0 W/m² | - |
| 1777963206 | 22.78° C | 76% | 1006.1 hPa | 0 mm | - | 0 W/m² | - |
* Rain latest hour (hover to see other rain measurements)
** Current wind speed in m/s (hover to see current wind gust speed)